Time;durP1;ratioP1;P1;durP2;ratioP2;P2;SDS_P1;SDS_P2;PMS_P1;PMS_P2;Temp;Humidity;BMP_temperature;BMP_pressure;BME280_temperature;BME280_humidity;BME280_pressure;Samples;Min_cycle;Max_cycle;Signal;HPM_P1;HPM_P2
2022/10/11 00:00:16;;;;;;;6.82;1.55;;;;;;;6.49;95.25;102046.81;10158735;29;20435;-79
2022/10/11 00:05:18;;;;;;;10.80;1.83;;;;;;;6.45;95.21;102042.25;10164289;29;20080;-79
2022/10/11 00:10:21;;;;;;;21.45;2.58;;;;;;;6.42;95.10;102052.50;10160451;29;20481;-79
2022/10/11 00:15:22;;;;;;;6.47;1.77;;;;;;;6.37;95.22;102060.06;10162203;29;20060;-79
2022/10/11 00:20:25;;;;;;;11.43;1.75;;;;;;;6.41;95.40;102062.81;10174072;29;20100;-79
2022/10/11 00:25:27;;;;;;;17.20;1.80;;;;;;;6.40;95.55;102059.34;10161852;29;20052;-79
2022/10/11 00:30:28;;;;;;;14.82;2.53;;;;;;;6.39;95.62;102070.53;10138144;29;20139;-79
2022/10/11 00:35:30;;;;;;;11.05;2.00;;;;;;;6.38;95.41;102068.78;10162051;29;20752;-79
2022/10/11 00:40:32;;;;;;;8.55;1.27;;;;;;;6.36;95.54;102072.97;10170673;29;20086;-79
2022/10/11 00:45:33;;;;;;;8.88;1.40;;;;;;;6.32;95.55;102089.22;10152633;29;20059;-79
2022/10/11 00:50:36;;;;;;;11.48;1.73;;;;;;;6.28;95.63;102097.69;10150026;29;20073;-79
2022/10/11 00:55:48;;;;;;;11.63;2.28;;;;;;;6.21;95.61;102099.03;10166592;29;22044;-79
2022/10/11 01:00:50;;;;;;;8.05;1.63;;;;;;;6.13;95.80;102089.91;10160642;29;20047;-80
2022/10/11 01:05:52;;;;;;;12.77;1.60;;;;;;;6.07;95.64;102092.19;10161028;29;20104;-79
2022/10/11 01:10:55;;;;;;;11.95;1.80;;;;;;;6.00;95.51;102097.03;10161337;29;20064;-79
2022/10/11 01:16:13;;;;;;;12.38;2.22;;;;;;;6.01;95.75;102093.59;10165407;29;20055;-79
2022/10/11 01:21:24;;;;;;;11.32;1.80;;;;;;;6.03;95.65;102098.00;10163150;29;20343;-78
2022/10/11 01:26:39;;;;;;;9.65;1.40;;;;;;;6.03;95.72;102096.28;10131796;29;20252;-79
2022/10/11 01:31:59;;;;;;;16.55;1.60;;;;;;;5.98;95.83;102101.25;10156669;29;20063;-79
2022/10/11 01:37:13;;;;;;;9.63;2.30;;;;;;;5.98;95.75;102101.25;10168505;29;20051;-80
2022/10/11 01:42:17;;;;;;;7.55;1.45;;;;;;;5.94;95.89;102121.75;10161103;29;20119;-80
2022/10/11 01:47:21;;;;;;;10.13;1.52;;;;;;;5.89;95.95;102116.28;10162729;29;20048;-79
2022/10/11 01:52:27;;;;;;;8.57;1.65;;;;;;;5.89;95.89;102111.09;10168053;29;20809;-79
2022/10/11 01:57:59;;;;;;;8.35;2.05;;;;;;;5.85;95.89;102114.31;10164179;29;20051;-78
2022/10/11 02:03:07;;;;;;;16.67;1.83;;;;;;;5.80;95.90;102120.97;10165753;29;20652;-79
2022/10/11 02:08:25;;;;;;;12.00;1.63;;;;;;;5.74;95.99;102126.69;10163812;29;20083;-79
2022/10/11 02:13:32;;;;;;;8.68;1.88;;;;;;;5.72;96.05;102125.72;10161175;29;20064;-79
2022/10/11 02:18:40;;;;;;;4.43;1.33;;;;;;;5.74;95.89;102120.59;10165408;29;20080;-79
2022/10/11 02:23:48;;;;;;;11.80;1.70;;;;;;;5.72;95.98;102130.91;10144095;29;20052;-79
2022/10/11 02:28:55;;;;;;;9.20;2.03;;;;;;;5.68;95.99;102128.94;10144788;29;20093;-80
2022/10/11 02:34:17;;;;;;;14.68;3.03;;;;;;;5.64;95.98;102137.34;10167102;29;20417;-79
2022/10/11 02:39:25;;;;;;;12.75;1.98;;;;;;;5.64;96.14;102134.75;10144013;29;20049;-79
2022/10/11 02:44:45;;;;;;;8.60;1.77;;;;;;;5.55;96.11;102144.59;10148598;29;20060;-79
2022/10/11 02:49:47;;;;;;;10.68;1.90;;;;;;;5.55;96.23;102152.41;10158161;29;20051;-79
2022/10/11 02:54:48;;;;;;;9.73;1.92;;;;;;;5.46;96.10;102145.88;10159041;29;20059;-79
2022/10/11 02:59:50;;;;;;;9.60;1.80;;;;;;;5.39;96.19;102166.16;10170058;29;20047;-80
2022/10/11 03:04:51;;;;;;;9.43;2.08;;;;;;;5.36;96.11;102159.09;10155532;29;20048;-79
2022/10/11 03:09:53;;;;;;;10.65;1.65;;;;;;;5.33;96.26;102164.13;10157305;29;20047;-79
2022/10/11 03:14:55;;;;;;;13.27;2.28;;;;;;;5.28;96.07;102175.91;10180696;29;20058;-79
2022/10/11 03:19:56;;;;;;;12.25;1.60;;;;;;;5.24;96.17;102169.66;10180465;29;20122;-80
2022/10/11 03:24:58;;;;;;;6.88;2.40;;;;;;;5.21;96.22;102178.94;10175053;29;20120;-80
2022/10/11 03:30:07;;;;;;;10.32;1.73;;;;;;;5.12;96.34;102174.97;10163874;29;20067;-79
2022/10/11 03:35:09;;;;;;;12.15;1.48;;;;;;;5.06;95.99;102185.00;10153082;29;20072;-79
2022/10/11 03:40:12;;;;;;;12.55;2.10;;;;;;;5.02;96.30;102187.31;10137206;29;20052;-79
2022/10/11 03:45:14;;;;;;;10.13;1.90;;;;;;;4.97;96.11;102197.41;10164183;29;20048;-79
2022/10/11 03:50:15;;;;;;;9.68;1.67;;;;;;;4.93;96.47;102188.50;10182993;29;20054;-79
2022/10/11 03:55:17;;;;;;;9.80;1.58;;;;;;;4.84;96.30;102195.72;10163329;29;20052;-80
2022/10/11 04:00:18;;;;;;;12.15;2.30;;;;;;;4.86;96.30;102204.50;10154323;29;20125;-80
2022/10/11 04:05:20;;;;;;;7.80;1.63;;;;;;;4.87;96.13;102202.81;10151588;29;20064;-80
2022/10/11 04:10:22;;;;;;;6.43;1.42;;;;;;;4.86;96.30;102201.00;10163981;29;20049;-79
2022/10/11 04:15:23;;;;;;;12.85;2.38;;;;;;;4.89;96.42;102212.47;10163336;29;20063;-80
2022/10/11 04:20:25;;;;;;;7.85;1.42;;;;;;;4.82;95.96;102223.28;10163182;29;20060;-79
2022/10/11 04:25:27;;;;;;;5.70;1.48;;;;;;;4.76;96.77;102229.00;10170159;29;20055;-80
2022/10/11 04:30:28;;;;;;;18.70;1.77;;;;;;;4.78;96.52;102229.97;10175120;29;20504;-80
2022/10/11 04:35:31;;;;;;;4.15;1.58;;;;;;;4.78;96.54;102245.53;10172378;29;20071;-79
2022/10/11 04:40:32;;;;;;;6.90;1.77;;;;;;;4.77;96.60;102251.56;10153361;29;20072;-79
2022/10/11 04:45:34;;;;;;;12.10;2.08;;;;;;;4.75;96.58;102254.84;10179310;29;20078;-80
2022/10/11 04:50:36;;;;;;;8.18;1.45;;;;;;;4.72;96.53;102260.72;10173352;29;20072;-80
2022/10/11 04:55:41;;;;;;;14.07;2.13;;;;;;;4.75;96.81;102270.41;10174543;29;20052;-80
2022/10/11 05:00:42;;;;;;;8.05;1.80;;;;;;;4.68;96.65;102266.50;10167417;29;20707;-80
2022/10/11 05:05:44;;;;;;;12.55;2.10;;;;;;;4.69;96.99;102270.91;10176339;29;20087;-80
2022/10/11 05:10:55;;;;;;;9.18;1.90;;;;;;;4.69;96.81;102265.72;10155394;29;20056;-79
2022/10/11 05:15:57;;;;;;;10.00;1.85;;;;;;;4.69;96.89;102273.50;10154301;29;20056;-80
2022/10/11 05:21:03;;;;;;;9.52;1.67;;;;;;;4.66;96.96;102281.09;10160535;29;20067;-80
2022/10/11 05:26:05;;;;;;;9.10;1.70;;;;;;;4.60;96.76;102276.38;10142489;29;20132;-79
2022/10/11 05:31:07;;;;;;;10.77;2.28;;;;;;;4.55;96.95;102287.28;10159623;29;20127;-80
2022/10/11 05:36:09;;;;;;;7.25;1.70;;;;;;;4.53;96.95;102294.06;10152392;29;20086;-79
2022/10/11 05:41:13;;;;;;;9.45;2.08;;;;;;;4.50;96.84;102299.03;10157306;29;20066;-79
2022/10/11 05:46:15;;;;;;;7.43;1.85;;;;;;;4.49;97.06;102302.41;10154787;29;20218;-80
2022/10/11 05:51:17;;;;;;;15.70;2.75;;;;;;;4.52;97.10;102308.72;10158559;29;20056;-80
2022/10/11 05:56:21;;;;;;;8.48;2.05;;;;;;;4.55;96.86;102315.81;10171583;29;20059;-80
2022/10/11 06:01:24;;;;;;;9.82;1.58;;;;;;;4.57;97.06;102322.00;10146279;29;20076;-79
2022/10/11 06:06:26;;;;;;;6.65;1.40;;;;;;;4.63;97.14;102317.22;10143894;29;20064;-79
2022/10/11 06:11:28;;;;;;;15.35;2.35;;;;;;;4.65;97.23;102323.41;10140239;29;20288;-79
2022/10/11 06:16:30;;;;;;;14.00;2.50;;;;;;;4.68;97.13;102326.19;10138562;29;20550;-79
2022/10/11 06:21:32;;;;;;;21.67;2.70;;;;;;;4.76;96.91;102343.19;10153109;29;20058;-79
2022/10/11 06:26:33;;;;;;;16.88;2.13;;;;;;;4.81;97.18;102342.59;10151015;29;20049;-80
2022/10/11 06:31:35;;;;;;;9.07;2.20;;;;;;;4.90;97.27;102349.25;10140123;29;20056;-80
2022/10/11 06:36:37;;;;;;;10.77;2.28;;;;;;;4.96;97.34;102348.78;10161503;29;20049;-80
2022/10/11 06:41:38;;;;;;;9.60;2.00;;;;;;;5.02;97.23;102363.84;10141252;29;20056;-81
2022/10/11 06:46:40;;;;;;;6.43;1.77;;;;;;;5.14;97.19;102365.53;10148874;29;21889;-81
2022/10/11 06:51:42;;;;;;;8.40;2.10;;;;;;;5.27;97.25;102366.34;10173334;29;20489;-81
2022/10/11 06:56:44;;;;;;;10.13;2.60;;;;;;;5.41;97.25;102370.69;10166203;29;20052;-81
2022/10/11 07:01:46;;;;;;;13.77;2.30;;;;;;;5.61;97.05;102373.66;10179524;29;22149;-81
2022/10/11 07:06:47;;;;;;;16.35;2.78;;;;;;;5.74;96.80;102381.41;10152509;29;20044;-81
2022/10/11 07:11:49;;;;;;;6.35;2.15;;;;;;;5.99;96.94;102390.75;10149000;29;20820;-81
2022/10/11 07:16:51;;;;;;;8.20;2.10;;;;;;;6.28;96.71;102394.25;10160867;29;20051;-81
2022/10/11 07:21:53;;;;;;;10.70;2.70;;;;;;;8.71;96.68;102392.84;10142860;29;20048;-81
2022/10/11 07:26:54;;;;;;;20.38;3.30;;;;;;;11.94;94.89;102400.00;10140433;29;20135;-80
2022/10/11 07:31:58;;;;;;;18.60;3.55;;;;;;;11.67;89.10;102405.97;10141460;29;20563;-82
2022/10/11 07:37:00;;;;;;;12.63;3.33;;;;;;;14.38;83.37;102413.13;10134153;29;20086;-82
2022/10/11 07:42:01;;;;;;;13.30;2.50;;;;;;;15.44;76.38;102412.28;10166607;29;20047;-82
2022/10/11 07:47:03;;;;;;;12.52;3.05;;;;;;;16.20;71.41;102412.19;10168344;29;20051;-82
2022/10/11 07:52:11;;;;;;;15.32;3.45;;;;;;;16.95;68.06;102416.19;10125481;29;20040;-82
2022/10/11 07:57:14;;;;;;;6.97;2.05;;;;;;;16.21;65.83;102421.88;10154972;29;20452;-82
2022/10/11 08:02:16;;;;;;;12.07;2.33;;;;;;;13.64;67.00;102427.69;10171510;29;20148;-81
2022/10/11 08:07:17;;;;;;;8.65;1.67;;;;;;;12.04;69.75;102423.16;10166430;29;20548;-81
2022/10/11 08:12:19;;;;;;;8.75;1.77;;;;;;;11.74;72.26;102422.84;10156335;29;20047;-81
2022/10/11 08:17:21;;;;;;;12.43;2.13;;;;;;;11.80;73.66;102426.59;10164538;29;20058;-81
2022/10/11 08:22:22;;;;;;;6.60;1.52;;;;;;;11.97;75.01;102427.25;10156230;29;20051;-81
2022/10/11 08:27:24;;;;;;;13.55;2.20;;;;;;;12.03;75.38;102421.34;10157270;29;20704;-81
2022/10/11 08:32:25;;;;;;;9.32;2.15;;;;;;;12.01;75.66;102433.53;10158590;29;20056;-80
2022/10/11 08:37:27;;;;;;;10.88;2.05;;;;;;;11.88;75.80;102433.88;10164376;29;20060;-80
2022/10/11 08:42:41;;;;;;;9.15;2.03;;;;;;;11.92;75.80;102441.94;10142579;29;20047;-79
2022/10/11 08:47:43;;;;;;;13.65;1.98;;;;;;;12.41;76.19;102447.22;10160445;29;20941;-79
2022/10/11 08:52:55;;;;;;;7.47;1.65;;;;;;;12.82;76.11;102451.31;10115472;29;20044;-79
2022/10/11 08:57:57;;;;;;;6.15;1.73;;;;;;;12.66;75.20;102449.00;10132572;29;20064;-79
2022/10/11 09:03:45;;;;;;;8.60;1.67;;;;;;;12.87;75.21;102455.00;10141943;29;20056;-82
2022/10/11 09:09:11;;;;;;;9.25;1.65;;;;;;;13.11;74.96;102454.03;10126772;29;20416;-77
2022/10/11 09:14:21;;;;;;;7.63;1.77;;;;;;;13.17;74.42;102461.25;10142053;29;20044;-78
2022/10/11 09:19:29;;;;;;;12.77;1.88;;;;;;;13.34;74.31;102459.19;10152471;29;20048;-80
2022/10/11 09:24:46;;;;;;;14.55;2.22;;;;;;;13.39;73.87;102462.84;10104255;29;20060;-79
2022/10/11 09:30:04;;;;;;;19.52;2.30;;;;;;;13.54;73.73;102457.19;10118819;29;20128;-80
2022/10/11 09:35:15;;;;;;;10.25;1.75;;;;;;;14.06;73.12;102466.66;10156923;29;22334;-80
2022/10/11 09:40:17;;;;;;;17.95;1.83;;;;;;;14.56;72.57;102466.34;10150786;29;20047;-80
2022/10/11 09:45:20;;;;;;;8.77;1.58;;;;;;;14.85;71.88;102471.53;10164098;29;20428;-80
2022/10/11 09:50:25;;;;;;;14.75;2.08;;;;;;;14.69;70.69;102467.59;10141615;29;20059;-80
2022/10/11 09:55:59;;;;;;;7.57;1.30;;;;;;;14.70;70.41;102476.38;10157063;29;21085;-79
2022/10/11 10:01:05;;;;;;;18.17;2.00;;;;;;;14.78;69.78;102462.56;10144526;29;20143;-78
2022/10/11 10:06:15;;;;;;;11.68;2.47;;;;;;;14.84;69.60;102467.09;10135725;29;20060;-80
2022/10/11 10:11:18;;;;;;;10.02;2.45;;;;;;;14.83;68.37;102470.59;10155268;29;20151;-80
2022/10/11 10:16:26;;;;;;;10.27;1.40;;;;;;;15.13;68.17;102475.78;10153761;29;20458;-80
2022/10/11 10:21:48;;;;;;;10.02;2.20;;;;;;;15.56;67.53;102474.16;10180016;29;20052;-80
2022/10/11 10:27:24;;;;;;;10.23;1.85;;;;;;;15.58;66.51;102487.41;10179292;29;20055;-81
2022/10/11 10:32:33;;;;;;;11.02;1.50;;;;;;;15.62;65.94;102480.47;10175897;29;20447;-79
2022/10/11 10:37:44;;;;;;;14.43;1.80;;;;;;;15.88;65.72;102489.00;10166173;29;20127;-79
2022/10/11 10:42:46;;;;;;;7.32;1.92;;;;;;;15.73;64.77;102495.69;10179236;29;20505;-79
2022/10/11 10:47:57;;;;;;;14.20;2.10;;;;;;;15.71;64.55;102492.09;10153905;29;20055;-80
2022/10/11 10:53:16;;;;;;;10.82;1.70;;;;;;;15.72;64.76;102491.25;10174902;29;20051;-80
2022/10/11 10:58:55;;;;;;;8.77;1.40;;;;;;;15.80;64.28;102487.94;10127613;29;20424;-79
2022/10/11 11:05:15;;;;;;;9.43;1.42;;;;;;;15.81;63.71;102482.69;10062554;29;20214;-78
2022/10/11 11:11:32;;;;;;;9.65;1.58;;;;;;;16.03;63.35;102489.34;9883266;29;20059;-79
2022/10/11 11:31:24;;;;;;;9.27;1.63;;;;;;;15.52;63.25;102480.25;9932285;29;20280;-78
2022/10/11 11:44:33;;;;;;;8.13;1.23;;;;;;;15.73;62.34;102471.94;9965279;29;20050;-78
2022/10/11 11:49:59;;;;;;;11.27;1.27;;;;;;;16.01;61.92;102469.03;9981074;29;20056;-77
2022/10/11 11:55:26;;;;;;;8.65;1.10;;;;;;;16.22;60.95;102473.88;9988924;29;20090;-80
2022/10/11 12:00:40;;;;;;;10.45;1.20;;;;;;;16.14;60.65;102464.88;10120322;29;20067;-77
2022/10/11 12:06:11;;;;;;;8.32;1.63;;;;;;;16.16;60.59;102473.75;10125632;29;20080;-77
2022/10/11 12:11:28;;;;;;;;;;;;;;;16.19;60.73;102458.84;10118688;29;20059;-78
2022/10/11 12:17:10;;;;;;;5.72;1.60;;;;;;;16.27;60.53;102456.34;10130333;29;20038;-77
2022/10/11 12:22:26;;;;;;;9.25;1.63;;;;;;;16.42;60.25;102440.81;10131448;29;20420;-76
2022/10/11 12:27:42;;;;;;;7.30;1.30;;;;;;;16.47;59.99;102448.81;10148157;29;20090;-77
2022/10/11 12:33:27;;;;;;;4.88;1.02;;;;;;;16.41;59.94;102451.34;10145661;29;20052;-77
2022/10/11 12:38:41;;;;;;;7.78;1.42;;;;;;;16.08;60.34;102455.09;10131392;29;20055;-78
2022/10/11 12:43:48;;;;;;;6.82;1.40;;;;;;;15.96;60.21;102454.81;10129298;29;20805;-78
2022/10/11 12:49:36;;;;;;;9.38;1.50;;;;;;;16.18;60.36;102442.94;10155558;29;20059;-77
2022/10/11 12:55:01;;;;;;;10.20;1.08;;;;;;;16.39;60.58;102440.75;10153510;29;20054;-77
2022/10/11 13:00:17;;;;;;;10.27;1.40;;;;;;;16.41;59.40;102441.66;10138682;29;20420;-78
2022/10/11 13:05:22;;;;;;;8.30;1.27;;;;;;;16.35;59.26;102444.19;10132769;29;20104;-77
2022/10/11 13:10:35;;;;;;;13.18;1.10;;;;;;;16.05;59.00;102440.06;10146540;29;20052;-77
2022/10/11 13:15:36;;;;;;;9.48;1.10;;;;;;;15.99;59.57;102434.66;10141252;29;20128;-78
2022/10/11 13:20:38;;;;;;;6.32;1.25;;;;;;;16.01;59.85;102438.22;10132946;29;20056;-78
2022/10/11 13:25:43;;;;;;;22.25;2.17;;;;;;;15.87;60.21;102434.41;10120675;29;20067;-77
2022/10/11 13:30:54;;;;;;;6.07;0.90;;;;;;;16.04;60.35;102422.41;10133511;29;20100;-77
2022/10/11 13:35:58;;;;;;;10.32;1.40;;;;;;;16.19;59.63;102428.88;10138241;29;20061;-78
2022/10/11 13:41:03;;;;;;;12.05;1.45;;;;;;;16.07;59.52;102432.16;10141053;29;20048;-77
2022/10/11 13:46:09;;;;;;;8.60;1.30;;;;;;;15.80;59.75;102440.41;10138831;29;20071;-78
2022/10/11 13:51:16;;;;;;;9.35;1.50;;;;;;;15.52;60.68;102434.44;10151053;29;20571;-77
2022/10/11 13:56:19;;;;;;;6.60;1.25;;;;;;;15.56;60.32;102433.69;10167863;29;20070;-77
2022/10/11 14:01:39;;;;;;;7.32;1.48;;;;;;;15.33;59.85;102431.41;10168620;29;20079;-77
2022/10/11 14:06:47;;;;;;;;;;;;;;;15.26;60.16;102432.09;10169426;29;20071;-80
2022/10/11 14:11:49;;;;;;;19.17;1.70;;;;;;;15.13;60.75;102437.94;10155882;29;19922;-77
2022/10/11 14:17:04;;;;;;;6.30;0.90;;;;;;;14.93;61.34;102433.06;10174851;29;20052;-79
2022/10/11 14:22:12;;;;;;;10.45;2.42;;;;;;;14.74;62.10;102428.16;10155878;29;20076;-77
2022/10/11 14:27:21;;;;;;;7.03;1.10;;;;;;;14.68;62.64;102428.88;10125889;29;20068;-77
2022/10/11 14:32:32;;;;;;;7.23;1.50;;;;;;;14.70;63.33;102427.19;10125033;29;20072;-77
2022/10/11 14:37:37;;;;;;;8.85;1.50;;;;;;;14.77;63.96;102428.25;10135335;29;20044;-77
2022/10/11 14:42:38;;;;;;;13.13;1.83;;;;;;;14.82;64.20;102434.53;10160916;29;20059;-79
2022/10/11 14:47:44;;;;;;;30.30;2.85;;;;;;;14.80;64.68;102434.50;10148322;29;20115;-78
2022/10/11 14:52:49;;;;;;;8.43;2.33;;;;;;;14.85;64.62;102422.31;10133555;29;20556;-77
2022/10/11 14:57:51;;;;;;;20.60;1.90;;;;;;;14.84;64.71;102430.19;10150629;29;20058;-77
2022/10/11 15:02:53;;;;;;;11.23;1.60;;;;;;;14.78;64.91;102438.81;10147170;29;20059;-76
2022/10/11 15:07:56;;;;;;;9.98;1.52;;;;;;;14.59;65.39;102434.81;10129546;29;20056;-77
2022/10/11 15:12:58;;;;;;;6.57;1.30;;;;;;;14.38;66.07;102429.84;10165225;29;20059;-78
2022/10/11 15:18:00;;;;;;;12.77;2.03;;;;;;;14.22;66.45;102431.16;10164331;29;20052;-78
2022/10/11 15:23:04;;;;;;;8.60;2.15;;;;;;;13.97;67.36;102438.31;10159569;29;20063;-76
2022/10/11 15:28:06;;;;;;;13.93;1.85;;;;;;;13.96;67.72;102431.28;10172407;29;20118;-76
2022/10/11 15:33:08;;;;;;;13.20;2.08;;;;;;;13.84;68.36;102440.56;10168023;29;20099;-74
2022/10/11 15:38:17;;;;;;;10.73;1.48;;;;;;;13.69;68.81;102443.59;10176936;29;20087;-74
2022/10/11 15:43:19;;;;;;;13.65;2.63;;;;;;;13.61;69.52;102439.00;10167290;29;20079;-75
2022/10/11 15:48:25;;;;;;;13.30;2.00;;;;;;;13.53;70.03;102440.50;10178108;29;20472;-75
2022/10/11 15:53:31;;;;;;;8.73;1.80;;;;;;;13.42;70.54;102437.56;10175685;29;20078;-78
2022/10/11 15:58:35;;;;;;;8.32;2.00;;;;;;;13.36;70.71;102431.19;10153174;29;20048;-78
2022/10/11 16:03:37;;;;;;;9.35;1.98;;;;;;;13.30;70.88;102420.44;10168708;29;20114;-77
2022/10/11 16:08:39;;;;;;;10.60;1.80;;;;;;;13.24;71.26;102421.13;10147974;29;20044;-77
2022/10/11 16:13:40;;;;;;;8.27;1.60;;;;;;;13.21;71.47;102419.31;10161802;29;20103;-77
2022/10/11 16:18:42;;;;;;;12.88;1.70;;;;;;;13.18;71.47;102427.09;10154745;29;20512;-77
2022/10/11 16:23:43;;;;;;;6.60;1.40;;;;;;;13.12;71.76;102426.00;10155719;29;20051;-76
2022/10/11 16:28:46;;;;;;;11.25;3.13;;;;;;;13.04;72.11;102428.38;10135884;29;20049;-77
2022/10/11 16:33:51;;;;;;;10.88;3.35;;;;;;;12.94;72.60;102434.16;10151615;29;20598;-76
2022/10/11 16:38:53;;;;;;;9.88;3.22;;;;;;;12.81;72.92;102430.25;10132377;29;20064;-76
2022/10/11 16:43:55;;;;;;;12.93;3.70;;;;;;;12.67;73.59;102422.78;10144150;29;20053;-75
2022/10/11 16:48:56;;;;;;;13.85;5.15;;;;;;;12.53;74.31;102431.91;10147458;29;20056;-76
2022/10/11 16:53:59;;;;;;;15.20;4.20;;;;;;;12.38;74.73;102430.53;10148134;29;20453;-76
2022/10/11 16:59:02;;;;;;;11.25;3.78;;;;;;;12.26;75.55;102434.44;10162041;29;20546;-75
2022/10/11 17:04:04;;;;;;;16.85;4.82;;;;;;;12.15;76.16;102436.69;10168825;29;20056;-76
2022/10/11 17:09:06;;;;;;;33.25;11.10;;;;;;;12.03;76.70;102442.34;10147869;29;20051;-74
2022/10/11 17:14:10;;;;;;;29.65;9.55;;;;;;;11.89;77.43;102439.19;10144581;29;20341;-76
2022/10/11 17:19:14;;;;;;;26.45;9.05;;;;;;;11.80;78.06;102444.06;10154729;29;21229;-74
2022/10/11 17:24:16;;;;;;;26.40;9.70;;;;;;;11.74;78.48;102439.50;10148994;29;20066;-76
2022/10/11 17:29:20;;;;;;;28.35;10.75;;;;;;;11.64;78.97;102439.97;10151543;29;20146;-75
2022/10/11 17:34:22;;;;;;;26.60;10.30;;;;;;;11.52;79.27;102443.00;10152645;29;20063;-75
2022/10/11 17:39:24;;;;;;;21.05;6.30;;;;;;;11.37;79.89;102443.28;10137634;29;20076;-74
2022/10/11 17:44:26;;;;;;;14.82;4.60;;;;;;;11.26;80.33;102444.56;10112362;29;20054;-75
2022/10/11 17:49:28;;;;;;;41.65;7.38;;;;;;;11.14;80.73;102439.72;10160651;29;20677;-74
2022/10/11 17:54:30;;;;;;;24.27;6.53;;;;;;;11.03;81.11;102439.25;10161719;29;20522;-75
2022/10/11 17:59:33;;;;;;;25.45;8.15;;;;;;;10.91;81.40;102446.63;10142474;29;20071;-75
2022/10/11 18:04:36;;;;;;;26.23;8.80;;;;;;;10.81;81.93;102437.50;10150236;29;20715;-75
2022/10/11 18:09:39;;;;;;;23.45;8.35;;;;;;;10.70;82.35;102441.34;10139089;29;20152;-75
2022/10/11 18:14:41;;;;;;;20.55;10.57;;;;;;;10.59;82.68;102438.28;10141456;29;20044;-75
2022/10/11 18:19:43;;;;;;;24.10;11.55;;;;;;;10.53;83.36;102445.88;10152664;29;20462;-75
2022/10/11 18:24:44;;;;;;;20.75;11.25;;;;;;;10.45;83.49;102435.06;10168892;29;20059;-75
2022/10/11 18:29:46;;;;;;;22.73;9.88;;;;;;;10.41;83.85;102438.38;10164012;29;20049;-75
2022/10/11 18:34:47;;;;;;;23.83;12.18;;;;;;;10.39;84.32;102433.06;10172841;29;20590;-75
2022/10/11 18:39:50;;;;;;;34.40;16.33;;;;;;;10.39;84.39;102434.81;10148754;29;20539;-75
2022/10/11 18:44:52;;;;;;;33.72;15.65;;;;;;;10.40;84.96;102431.34;10158844;29;20162;-75
2022/10/11 18:49:54;;;;;;;20.48;8.68;;;;;;;10.39;85.32;102433.06;10147692;29;20662;-75
2022/10/11 18:54:57;;;;;;;17.02;5.53;;;;;;;10.32;85.40;102428.34;10160807;29;20420;-75
2022/10/11 18:59:58;;;;;;;17.20;5.45;;;;;;;10.36;85.83;102437.28;10170088;29;20457;-75
2022/10/11 19:05:12;;;;;;;26.90;7.43;;;;;;;10.38;85.83;102428.66;10175943;29;20142;-75
2022/10/11 19:10:14;;;;;;;24.33;8.02;;;;;;;10.43;86.03;102423.63;10167804;29;20062;-75
2022/10/11 19:15:16;;;;;;;27.02;8.27;;;;;;;10.48;86.14;102418.56;10163297;29;20055;-75
2022/10/11 19:20:18;;;;;;;16.25;6.30;;;;;;;10.48;86.06;102429.97;10169219;29;20060;-75
2022/10/11 19:25:20;;;;;;;17.13;5.63;;;;;;;10.49;86.24;102430.84;10172138;29;20546;-75
2022/10/11 19:30:24;;;;;;;16.42;4.43;;;;;;;10.50;86.38;102437.88;10176301;29;20044;-75
2022/10/11 19:35:27;;;;;;;15.98;4.00;;;;;;;10.52;86.41;102428.38;10169824;29;20134;-75
2022/10/11 19:40:28;;;;;;;15.00;3.70;;;;;;;10.51;86.59;102418.69;10165989;29;20056;-75
2022/10/11 19:45:34;;;;;;;16.88;4.45;;;;;;;10.53;86.59;102417.06;10173171;29;20084;-75
2022/10/11 19:50:37;;;;;;;21.23;7.32;;;;;;;10.56;86.25;102422.44;10155561;29;20621;-75
2022/10/11 19:55:39;;;;;;;25.33;8.95;;;;;;;10.54;86.37;102424.09;10171474;29;20110;-75
2022/10/11 20:00:47;;;;;;;25.58;9.15;;;;;;;10.53;86.44;102422.31;10134941;29;20466;-75
2022/10/11 20:05:48;;;;;;;22.70;8.43;;;;;;;10.49;86.36;102420.38;10170379;29;20057;-75
2022/10/11 20:10:54;;;;;;;16.83;6.55;;;;;;;10.39;86.59;102430.44;10173577;29;20082;-75
2022/10/11 20:16:03;;;;;;;19.05;6.60;;;;;;;10.27;86.95;102420.28;10159766;29;20752;-75
2022/10/11 20:21:10;;;;;;;18.13;6.50;;;;;;;10.10;87.05;102416.00;10157430;29;20060;-75
2022/10/11 20:26:19;;;;;;;13.63;5.45;;;;;;;9.94;87.25;102417.06;10148851;29;20106;-75
2022/10/11 20:31:24;;;;;;;21.35;5.55;;;;;;;9.75;87.04;102427.50;10141183;29;20119;-75
2022/10/11 20:36:28;;;;;;;13.52;4.82;;;;;;;9.53;86.99;102426.47;10168999;29;20055;-75
2022/10/11 20:41:33;;;;;;;16.00;4.43;;;;;;;9.36;87.19;102428.28;10148906;29;20052;-75
2022/10/11 20:46:37;;;;;;;14.82;3.75;;;;;;;9.17;87.29;102416.94;10167045;29;20056;-74
2022/10/11 20:51:40;;;;;;;12.32;3.20;;;;;;;9.01;87.47;102423.13;10142162;29;20057;-75
2022/10/11 20:56:42;;;;;;;8.40;3.17;;;;;;;8.90;87.46;102418.19;10150221;29;20170;-75
2022/10/11 21:01:44;;;;;;;12.05;2.92;;;;;;;8.75;87.86;102420.91;10178297;29;20048;-75
2022/10/11 21:06:47;;;;;;;7.68;3.15;;;;;;;8.62;87.93;102416.81;10161956;29;20056;-75
2022/10/11 21:11:48;;;;;;;7.35;3.10;;;;;;;8.49;88.21;102423.09;10164479;29;20442;-75
2022/10/11 21:16:50;;;;;;;15.80;3.55;;;;;;;8.37;88.33;102418.09;10158881;29;20692;-75
2022/10/11 21:21:51;;;;;;;13.73;3.70;;;;;;;8.25;88.32;102426.16;10173672;29;20059;-75
2022/10/11 21:26:54;;;;;;;19.83;7.60;;;;;;;8.13;88.67;102423.81;10141946;29;20059;-75
2022/10/11 21:32:01;;;;;;;9.07;3.17;;;;;;;7.90;88.62;102425.19;10165092;29;20057;-75
2022/10/11 21:37:03;;;;;;;12.57;3.33;;;;;;;7.78;88.80;102429.75;10164735;29;20092;-75
2022/10/11 21:42:06;;;;;;;11.93;3.40;;;;;;;7.68;89.14;102417.91;10158435;29;20836;-75
2022/10/11 21:47:09;;;;;;;8.00;2.72;;;;;;;7.58;89.41;102426.94;10159775;29;20059;-75
2022/10/11 21:52:11;;;;;;;7.28;2.50;;;;;;;7.48;89.41;102419.41;10178663;29;20345;-75
2022/10/11 21:57:13;;;;;;;14.93;3.55;;;;;;;7.42;89.63;102426.91;10162803;29;20107;-75
2022/10/11 22:02:14;;;;;;;9.13;3.97;;;;;;;7.29;89.64;102422.69;10163521;29;20055;-75
2022/10/11 22:07:17;;;;;;;7.75;3.33;;;;;;;7.20;89.82;102423.06;10168639;29;20080;-75
2022/10/11 22:12:18;;;;;;;9.00;3.53;;;;;;;7.11;89.82;102412.13;10165056;29;20052;-75
2022/10/11 22:17:20;;;;;;;18.08;3.95;;;;;;;7.04;89.93;102415.16;10162665;29;20531;-75
2022/10/11 22:22:21;;;;;;;11.05;3.70;;;;;;;6.95;89.86;102420.78;10143262;29;20791;-75
2022/10/11 22:27:24;;;;;;;17.25;3.92;;;;;;;6.87;90.12;102417.69;10149852;29;20050;-75
2022/10/11 22:32:26;;;;;;;14.68;3.83;;;;;;;6.77;90.22;102420.59;10163863;29;20103;-74
2022/10/11 22:37:28;;;;;;;14.52;3.45;;;;;;;6.68;90.27;102425.22;10156704;29;20607;-75
2022/10/11 22:42:29;;;;;;;10.73;3.45;;;;;;;6.60;90.31;102426.50;10144361;29;20063;-75
2022/10/11 22:47:31;;;;;;;9.57;2.75;;;;;;;6.51;90.52;102425.13;10168202;29;20056;-75
2022/10/11 22:52:33;;;;;;;9.38;2.90;;;;;;;6.46;90.64;102420.47;10164114;29;20063;-75
2022/10/11 22:57:34;;;;;;;13.10;3.22;;;;;;;6.36;90.63;102424.22;10161974;29;20059;-75
2022/10/11 23:02:37;;;;;;;5.10;2.03;;;;;;;6.27;90.60;102429.75;10157192;29;20103;-75
2022/10/11 23:07:39;;;;;;;9.30;2.88;;;;;;;6.21;90.71;102425.91;10174700;29;20134;-75
2022/10/11 23:12:42;;;;;;;13.18;2.45;;;;;;;6.14;90.77;102425.53;10164332;29;20082;-75
2022/10/11 23:17:43;;;;;;;7.40;2.40;;;;;;;6.05;90.85;102419.75;10175913;29;20115;-74
2022/10/11 23:22:45;;;;;;;9.52;3.35;;;;;;;5.97;90.89;102420.97;10156388;29;20432;-75
2022/10/11 23:27:47;;;;;;;7.10;2.50;;;;;;;5.93;90.97;102421.53;10171208;29;20087;-74
2022/10/11 23:32:49;;;;;;;5.45;2.45;;;;;;;5.84;90.80;102424.50;10150948;29;20048;-75
2022/10/11 23:37:52;;;;;;;10.27;2.70;;;;;;;5.82;90.90;102432.19;10145054;29;20067;-75
2022/10/11 23:42:54;;;;;;;6.38;2.30;;;;;;;5.74;90.96;102438.59;10150756;29;20045;-75
2022/10/11 23:47:56;;;;;;;7.93;2.65;;;;;;;5.67;90.99;102436.41;10163179;29;20428;-75